Time;durP1;ratioP1;P1;durP2;ratioP2;P2;SDS_P1;SDS_P2;PMS_P1;PMS_P2;Temp;Humidity;BMP_temperature;BMP_pressure;BME280_temperature;BME280_humidity;BME280_pressure;Samples;Min_cycle;Max_cycle;Signal;HPM_P1;HPM_P2
2022/05/10 00:00:56;;;;;;;12.60;8.98;;;13.50;73.90;;;;;;5077574;28;20047;-78
2022/05/10 00:03:30;;;;;;;13.35;8.05;;;13.50;73.80;;;;;;5093244;28;20040;-79
2022/05/10 00:05:56;;;;;;;11.13;7.15;;;13.50;74.10;;;;;;5076561;28;20047;-78
2022/05/10 00:08:21;;;;;;;12.98;9.25;;;13.40;73.80;;;;;;5076360;28;20040;-80
2022/05/10 00:10:47;;;;;;;11.95;7.50;;;13.40;74.00;;;;;;5076384;28;20040;-80
2022/05/10 00:13:14;;;;;;;13.68;8.07;;;13.40;74.10;;;;;;5076048;28;20054;-78
2022/05/10 00:15:41;;;;;;;13.35;8.48;;;13.30;74.00;;;;;;5093313;28;20055;-80
2022/05/10 00:18:12;;;;;;;14.85;9.45;;;13.30;73.60;;;;;;5076547;28;20102;-78
2022/05/10 00:20:39;;;;;;;16.65;10.10;;;13.30;73.70;;;;;;5076201;28;20124;-79
2022/05/10 00:23:04;;;;;;;14.65;8.63;;;13.30;74.00;;;;;;5092936;28;20047;-79
2022/05/10 00:25:30;;;;;;;17.10;9.90;;;13.30;73.80;;;;;;5092839;28;20040;-78
2022/05/10 00:27:57;;;;;;;15.85;10.35;;;13.20;73.40;;;;;;5093298;28;20076;-79
2022/05/10 00:30:23;;;;;;;16.08;8.57;;;13.30;73.30;;;;;;5092887;28;20040;-79
2022/05/10 00:32:50;;;;;;;17.27;10.10;;;13.30;73.00;;;;;;5075932;28;20044;-78
2022/05/10 00:35:19;;;;;;;14.10;10.13;;;13.30;73.00;;;;;;5092655;28;20099;-78
2022/05/10 00:37:48;;;;;;;16.05;10.88;;;13.30;72.80;;;;;;5075963;28;20044;-79
2022/05/10 00:40:15;;;;;;;15.90;10.55;;;13.40;73.30;;;;;;5092668;28;20062;-79
2022/05/10 00:42:57;;;;;;;17.42;10.38;;;13.30;73.30;;;;;;5091627;28;20127;-78
2022/05/10 00:45:45;;;;;;;17.52;11.23;;;13.40;72.90;;;;;;5092427;28;20044;-78
2022/05/10 00:48:24;;;;;;;15.55;9.30;;;13.40;73.20;;;;;;5092147;28;20058;-76
2022/05/10 00:50:56;;;;;;;16.77;10.57;;;13.40;73.00;;;;;;5092268;28;22018;-79
2022/05/10 00:53:55;;;;;;;17.48;10.75;;;13.40;73.00;;;;;;5075241;28;20073;-80
2022/05/10 00:56:42;;;;;;;16.48;11.38;;;13.40;73.50;;;;;;5092720;28;20036;-79
2022/05/10 00:59:15;;;;;;;18.05;11.48;;;13.40;73.20;;;;;;5092299;28;20549;-78
2022/05/10 01:01:44;;;;;;;13.90;11.00;;;13.40;73.50;;;;;;5092249;28;20039;-80
2022/05/10 01:04:31;;;;;;;18.90;12.20;;;13.30;73.50;;;;;;5092436;28;20079;-79
2022/05/10 01:07:13;;;;;;;22.75;11.77;;;13.30;73.80;;;;;;5092354;28;20046;-78
2022/05/10 01:09:39;;;;;;;19.77;11.55;;;13.20;74.00;;;;;;5092192;28;20052;-79
2022/05/10 01:12:11;;;;;;;18.38;11.20;;;13.20;73.80;;;;;;5091883;28;20402;-79
2022/05/10 01:15:09;;;;;;;18.10;11.80;;;13.20;73.70;;;;;;5075593;28;20047;-79
2022/05/10 01:17:35;;;;;;;19.73;12.32;;;13.30;74.00;;;;;;5074846;28;20551;-78
2022/05/10 01:20:03;;;;;;;17.83;12.38;;;13.30;73.60;;;;;;5092359;28;20114;-78
2022/05/10 01:22:36;;;;;;;16.17;11.93;;;13.30;73.50;;;;;;5092332;28;20036;-79
2022/05/10 01:25:49;;;;;;;18.03;12.90;;;13.30;73.90;;;;;;5075999;28;20085;-79
2022/05/10 01:28:32;;;;;;;18.60;12.27;;;13.30;73.60;;;;;;5083762;28;20569;-77
2022/05/10 01:31:04;;;;;;;17.20;12.05;;;13.30;74.10;;;;;;5092360;28;20044;-78
2022/05/10 01:33:40;;;;;;;19.20;12.23;;;13.30;73.90;;;;;;5092236;28;20043;-79
2022/05/10 01:36:21;;;;;;;15.80;11.82;;;13.30;74.00;;;;;;5092462;28;20419;-79
2022/05/10 01:39:08;;;;;;;19.75;12.75;;;13.30;74.00;;;;;;5075164;28;20044;-78
2022/05/10 01:41:50;;;;;;;20.40;13.40;;;13.30;74.30;;;;;;5092560;28;20063;-78
2022/05/10 01:44:45;;;;;;;18.20;13.60;;;13.30;74.40;;;;;;5075769;28;20368;-78
2022/05/10 01:47:34;;;;;;;15.75;12.52;;;13.20;74.50;;;;;;5091550;28;20060;-79
2022/05/10 01:50:24;;;;;;;16.65;11.80;;;13.20;74.80;;;;;;5092198;28;20123;-77
2022/05/10 01:53:13;;;;;;;13.52;11.85;;;13.20;75.00;;;;;;5092052;28;20480;-79
2022/05/10 01:55:54;;;;;;;22.13;13.65;;;13.10;74.70;;;;;;5095917;28;20044;-78
2022/05/10 01:58:24;;;;;;;16.83;11.98;;;13.20;74.90;;;;;;5095877;28;20044;-79
2022/05/10 02:00:55;;;;;;;19.73;12.88;;;13.10;75.10;;;;;;5095709;28;20040;-79
2022/05/10 02:03:39;;;;;;;19.40;12.90;;;13.10;75.00;;;;;;5078997;28;20126;-80
2022/05/10 02:06:30;;;;;;;18.23;13.48;;;13.10;75.20;;;;;;5078913;28;20051;-79
2022/05/10 02:09:06;;;;;;;21.65;13.23;;;13.10;75.10;;;;;;5095639;28;20082;-79
2022/05/10 02:11:48;;;;;;;14.70;10.93;;;13.00;75.20;;;;;;5095673;28;20044;-79
2022/05/10 02:14:19;;;;;;;22.63;14.15;;;13.00;75.30;;;;;;5079222;28;20044;-79
2022/05/10 02:16:55;;;;;;;20.52;13.57;;;13.00;75.20;;;;;;5095811;28;20044;-78
2022/05/10 02:19:45;;;;;;;20.77;12.90;;;13.00;75.30;;;;;;5095685;28;20044;-78
2022/05/10 02:22:19;;;;;;;19.20;13.10;;;13.00;75.50;;;;;;5078668;28;20102;-79
2022/05/10 02:24:59;;;;;;;16.23;11.93;;;13.10;75.40;;;;;;5078489;28;20048;-78
2022/05/10 02:27:35;;;;;;;20.42;13.48;;;13.10;75.50;;;;;;5078355;28;20040;-79
2022/05/10 02:30:07;;;;;;;19.40;14.00;;;13.10;75.90;;;;;;5095472;28;20398;-79
2022/05/10 02:35:30;;;;;;;16.02;11.63;;;13.10;76.00;;;;;;5095072;28;20051;-77
2022/05/10 02:37:56;;;;;;;15.80;11.98;;;13.00;76.10;;;;;;5095134;28;20043;-78
2022/05/10 02:40:21;;;;;;;19.35;12.85;;;13.10;76.00;;;;;;5078162;28;20124;-78
2022/05/10 02:42:48;;;;;;;21.55;14.90;;;13.10;76.20;;;;;;5094841;28;20043;-76
2022/05/10 02:45:18;;;;;;;20.23;11.98;;;13.10;76.20;;;;;;5078108;28;20079;-79
2022/05/10 02:47:46;;;;;;;15.77;10.93;;;13.10;76.50;;;;;;5094938;28;20076;-77
2022/05/10 02:50:29;;;;;;;14.50;10.15;;;13.10;76.20;;;;;;5094707;28;20036;-78
2022/05/10 02:52:55;;;;;;;20.42;13.57;;;13.20;76.00;;;;;;5094740;28;20043;-79
2022/05/10 02:55:42;;;;;;;19.77;13.32;;;13.20;76.10;;;;;;5094987;28;20044;-79
2022/05/10 02:58:18;;;;;;;17.85;13.15;;;13.20;75.90;;;;;;5094962;28;20036;-80
2022/05/10 03:00:44;;;;;;;19.20;13.63;;;13.20;76.00;;;;;;5078053;28;20449;-79
2022/05/10 03:03:15;;;;;;;17.88;14.23;;;13.20;76.10;;;;;;5094774;28;20092;-78
2022/05/10 03:05:41;;;;;;;19.73;14.25;;;13.20;75.80;;;;;;5094807;28;20075;-79
2022/05/10 03:08:06;;;;;;;20.45;13.60;;;13.20;76.30;;;;;;5077765;28;20516;-80
2022/05/10 03:10:32;;;;;;;22.13;13.30;;;13.20;76.10;;;;;;5094729;28;20044;-80
2022/05/10 03:12:59;;;;;;;16.25;12.52;;;13.30;76.40;;;;;;5094263;28;20063;-79
2022/05/10 03:15:25;;;;;;;17.70;13.25;;;13.30;76.30;;;;;;5077639;28;20051;-78
2022/05/10 03:17:51;;;;;;;16.92;12.93;;;13.30;76.90;;;;;;5094609;28;20036;-79
2022/05/10 03:20:17;;;;;;;18.08;13.80;;;13.30;77.20;;;;;;5094124;28;20039;-79
2022/05/10 03:22:42;;;;;;;22.40;13.48;;;13.30;77.20;;;;;;5093893;28;20059;-79
2022/05/10 03:25:08;;;;;;;21.65;14.18;;;13.30;77.10;;;;;;5077109;28;20044;-76
2022/05/10 03:27:35;;;;;;;19.02;14.27;;;13.30;77.30;;;;;;5076728;28;20050;-78
2022/05/10 03:30:05;;;;;;;17.00;13.57;;;13.30;77.20;;;;;;5093831;28;20086;-79
2022/05/10 03:32:31;;;;;;;20.10;13.45;;;13.30;77.00;;;;;;5076730;28;20040;-77
2022/05/10 03:34:58;;;;;;;17.77;12.15;;;13.30;77.00;;;;;;5093671;28;20123;-78
2022/05/10 03:37:29;;;;;;;17.73;13.60;;;13.30;77.20;;;;;;5077082;28;20384;-79
2022/05/10 03:39:55;;;;;;;20.95;13.07;;;13.30;77.80;;;;;;5077287;28;20148;-78
2022/05/10 03:42:22;;;;;;;15.48;11.63;;;13.30;77.00;;;;;;5093916;28;20035;-78
2022/05/10 03:44:50;;;;;;;17.60;10.73;;;13.30;77.30;;;;;;5093915;28;20040;-79
2022/05/10 03:47:18;;;;;;;21.20;13.45;;;13.30;77.40;;;;;;5076863;28;20039;-80
2022/05/10 03:49:45;;;;;;;18.20;12.88;;;13.40;77.10;;;;;;5077261;28;20051;-78
2022/05/10 03:52:12;;;;;;;19.52;13.60;;;13.40;77.00;;;;;;5093628;28;20572;-79
2022/05/10 03:54:38;;;;;;;17.05;12.02;;;13.40;76.80;;;;;;5076779;28;20123;-80
2022/05/10 03:57:05;;;;;;;18.90;12.63;;;13.40;77.00;;;;;;5076086;28;20076;-79
2022/05/10 03:59:31;;;;;;;16.60;11.30;;;13.50;77.50;;;;;;5076409;28;20040;-79
2022/05/10 04:01:57;;;;;;;22.90;13.73;;;13.50;77.00;;;;;;5093012;28;20507;-80
2022/05/10 04:04:23;;;;;;;18.42;12.57;;;13.50;76.70;;;;;;5093290;28;20101;-81
2022/05/10 04:06:49;;;;;;;20.10;13.50;;;13.50;77.00;;;;;;5093234;28;20040;-81
2022/05/10 04:09:15;;;;;;;17.58;11.32;;;13.50;76.90;;;;;;5093468;28;20364;-79
2022/05/10 04:11:41;;;;;;;18.65;12.57;;;13.50;76.90;;;;;;5092982;28;20055;-80
2022/05/10 04:14:07;;;;;;;21.33;13.00;;;13.50;77.00;;;;;;5093135;28;20052;-80
2022/05/10 04:16:33;;;;;;;17.52;11.52;;;13.50;77.50;;;;;;5092671;28;20184;-80
2022/05/10 04:18:59;;;;;;;19.88;13.23;;;13.50;77.30;;;;;;5076316;28;20079;-81
2022/05/10 04:21:24;;;;;;;18.27;13.38;;;13.50;77.70;;;;;;5075943;28;20056;-78
2022/05/10 04:23:51;;;;;;;20.33;14.48;;;13.50;77.80;;;;;;5092919;28;20040;-79
2022/05/10 04:26:18;;;;;;;19.05;13.18;;;13.50;77.90;;;;;;5093194;28;20067;-82
2022/05/10 04:28:44;;;;;;;22.25;12.30;;;13.50;78.40;;;;;;5076057;28;20480;-80
2022/05/10 04:31:10;;;;;;;20.23;13.63;;;13.50;78.10;;;;;;5075809;28;20050;-80
2022/05/10 04:33:37;;;;;;;21.63;13.80;;;13.50;78.00;;;;;;5093110;28;20507;-79
2022/05/10 04:36:03;;;;;;;17.58;12.82;;;13.50;78.40;;;;;;5076241;28;20449;-79
2022/05/10 04:38:29;;;;;;;18.35;13.25;;;13.50;78.50;;;;;;5075886;28;20036;-79
2022/05/10 04:43:40;;;;;;;18.42;12.95;;;13.50;78.30;;;;;;5092488;28;20036;-80
2022/05/10 04:46:05;;;;;;;22.38;13.02;;;13.50;78.30;;;;;;5075831;28;20043;-79
2022/05/10 04:48:33;;;;;;;18.58;13.30;;;13.50;78.70;;;;;;5059238;28;20036;-80
2022/05/10 04:51:00;;;;;;;16.55;12.60;;;13.60;78.30;;;;;;5075681;28;20036;-80
2022/05/10 04:53:26;;;;;;;19.00;12.18;;;13.60;78.60;;;;;;5092644;28;20106;-80
2022/05/10 04:55:52;;;;;;;15.65;11.52;;;13.70;78.40;;;;;;5075481;28;20499;-81
2022/05/10 04:58:18;;;;;;;15.10;11.65;;;13.70;78.80;;;;;;5092518;28;20036;-78
2022/05/10 05:00:44;;;;;;;21.75;11.55;;;13.70;78.50;;;;;;5074764;28;20537;-80
2022/05/10 05:03:09;;;;;;;16.52;11.35;;;13.80;78.70;;;;;;5092094;28;20046;-80
2022/05/10 05:05:35;;;;;;;15.68;12.38;;;13.80;78.20;;;;;;5092137;28;20039;-82
2022/05/10 05:08:01;;;;;;;18.17;12.10;;;13.90;78.50;;;;;;5075229;28;20036;-80
2022/05/10 05:10:26;;;;;;;22.00;12.68;;;13.90;77.90;;;;;;5075204;28;20042;-80
2022/05/10 05:12:52;;;;;;;19.77;13.43;;;14.00;78.50;;;;;;5058545;28;20088;-79
2022/05/10 05:15:18;;;;;;;15.80;11.20;;;14.00;78.40;;;;;;5058715;28;20066;-80
2022/05/10 05:17:44;;;;;;;26.55;11.52;;;14.00;77.80;;;;;;5058366;28;20036;-80
2022/05/10 05:20:10;;;;;;;18.27;12.35;;;14.10;77.70;;;;;;5092113;28;20032;-79
2022/05/10 05:22:37;;;;;;;16.35;11.35;;;14.20;78.00;;;;;;5092025;28;20043;-79
2022/05/10 05:25:04;;;;;;;15.68;11.60;;;14.20;77.70;;;;;;5091988;28;20043;-80
2022/05/10 05:27:30;;;;;;;18.23;11.60;;;14.30;78.00;;;;;;5076595;28;20044;-80
2022/05/10 05:29:56;;;;;;;19.00;10.98;;;14.30;77.60;;;;;;5096371;28;20047;-80
2022/05/10 05:32:27;;;;;;;18.33;12.02;;;14.30;77.60;;;;;;5079312;28;20044;-80
2022/05/10 05:34:52;;;;;;;17.38;11.38;;;14.40;77.30;;;;;;5079485;28;20111;-80
2022/05/10 05:37:33;;;;;;;16.70;11.65;;;14.40;77.40;;;;;;5096167;28;20111;-81
2022/05/10 05:40:12;;;;;;;19.38;11.70;;;14.50;77.40;;;;;;5079930;28;20181;-80
2022/05/10 05:42:37;;;;;;;19.23;11.57;;;14.50;77.20;;;;;;5096303;28;20077;-80
2022/05/10 05:45:05;;;;;;;16.10;11.15;;;14.60;76.80;;;;;;5079191;28;20040;-79
2022/05/10 05:47:31;;;;;;;17.05;11.52;;;14.60;76.80;;;;;;5062758;28;20090;-80
2022/05/10 05:49:56;;;;;;;20.50;11.73;;;14.70;76.80;;;;;;5096206;28;20043;-80
2022/05/10 05:52:23;;;;;;;16.83;11.52;;;14.70;76.30;;;;;;5079169;28;20549;-80
2022/05/10 05:54:53;;;;;;;15.68;10.65;;;14.80;76.20;;;;;;5079109;28;20036;-80
2022/05/10 05:57:20;;;;;;;16.50;11.57;;;14.90;76.00;;;;;;5096198;28;20101;-81
2022/05/10 05:59:46;;;;;;;18.90;10.80;;;15.00;75.50;;;;;;5095718;28;20128;-78
2022/05/10 06:02:15;;;;;;;18.92;10.88;;;15.10;75.30;;;;;;5095599;28;20123;-80
2022/05/10 06:04:41;;;;;;;13.45;11.65;;;15.10;75.10;;;;;;5095740;28;20036;-79
2022/05/10 06:07:09;;;;;;;18.05;11.85;;;15.20;74.90;;;;;;5095742;28;20047;-81
2022/05/10 06:09:37;;;;;;;16.20;11.52;;;15.30;74.90;;;;;;5095991;28;20478;-80
2022/05/10 06:12:05;;;;;;;18.17;11.40;;;15.40;74.50;;;;;;5078704;28;20140;-80
2022/05/10 06:14:32;;;;;;;17.67;12.05;;;15.40;74.40;;;;;;5095147;28;20127;-80
2022/05/10 06:16:58;;;;;;;18.67;12.45;;;15.50;74.10;;;;;;5095157;28;20036;-79
2022/05/10 06:19:24;;;;;;;18.65;11.48;;;15.50;74.00;;;;;;5077970;28;20039;-81
2022/05/10 06:21:51;;;;;;;18.02;11.57;;;15.50;73.80;;;;;;5077986;28;20364;-79
2022/05/10 06:24:17;;;;;;;19.08;10.65;;;15.50;73.80;;;;;;5075350;28;20039;-79
2022/05/10 06:26:43;;;;;;;19.25;10.90;;;15.60;73.60;;;;;;5094776;28;20031;-78
2022/05/10 06:29:08;;;;;;;14.60;10.98;;;15.70;73.40;;;;;;5077870;28;20036;-80
2022/05/10 06:31:36;;;;;;;14.27;11.05;;;15.70;73.20;;;;;;5077656;28;20133;-80
2022/05/10 06:34:02;;;;;;;15.65;10.77;;;15.70;73.30;;;;;;5094659;28;20047;-80
2022/05/10 06:36:28;;;;;;;17.63;10.80;;;15.80;73.30;;;;;;5078277;28;20040;-80
2022/05/10 06:38:54;;;;;;;18.42;11.73;;;15.90;73.10;;;;;;5094804;28;20124;-80
2022/05/10 06:41:20;;;;;;;16.83;11.52;;;16.00;72.70;;;;;;5073180;28;20044;-78
2022/05/10 06:43:45;;;;;;;14.70;11.63;;;16.00;72.60;;;;;;5088869;28;20120;-77
2022/05/10 06:46:14;;;;;;;16.83;10.38;;;16.10;72.40;;;;;;5068109;28;20093;-79
2022/05/10 06:48:40;;;;;;;13.05;10.90;;;16.10;72.20;;;;;;5085547;28;20039;-79
2022/05/10 06:51:09;;;;;;;16.88;11.48;;;16.20;72.00;;;;;;5053917;28;20120;-77
2022/05/10 06:53:36;;;;;;;17.98;11.80;;;16.20;72.00;;;;;;5070870;28;20511;-77
2022/05/10 06:56:03;;;;;;;17.42;11.80;;;16.30;72.20;;;;;;5075122;28;20032;-79
2022/05/10 06:58:29;;;;;;;17.63;11.65;;;16.30;72.10;;;;;;5089301;28;20125;-78
2022/05/10 07:00:55;;;;;;;18.95;12.40;;;16.30;72.80;;;;;;5087827;28;20141;-78
2022/05/10 07:03:45;;;;;;;14.43;10.55;;;16.30;72.90;;;;;;5088814;28;20043;-77
2022/05/10 07:06:12;;;;;;;13.90;10.50;;;16.30;72.50;;;;;;5071637;28;20063;-79
2022/05/10 07:08:39;;;;;;;16.65;11.27;;;16.40;72.70;;;;;;5089085;28;20485;-78
2022/05/10 07:11:06;;;;;;;17.50;11.27;;;16.40;73.20;;;;;;5086977;28;20040;-78
2022/05/10 07:13:32;;;;;;;16.02;10.48;;;16.40;74.10;;;;;;5089580;28;20048;-78
2022/05/10 07:15:58;;;;;;;14.48;9.32;;;16.50;74.00;;;;;;5055764;28;20036;-80
2022/05/10 07:18:27;;;;;;;16.33;11.07;;;16.50;73.40;;;;;;5072260;28;20048;-78
2022/05/10 07:20:54;;;;;;;14.88;11.27;;;16.50;73.80;;;;;;5120146;27;20055;-79
2022/05/10 07:23:26;;;;;;;14.27;10.50;;;16.50;74.50;;;;;;5122148;27;20048;-76
2022/05/10 07:25:52;;;;;;;16.23;11.73;;;16.50;74.20;;;;;;5071473;28;20039;-78
2022/05/10 07:28:18;;;;;;;12.52;10.60;;;16.50;74.70;;;;;;5089044;28;20143;-79
2022/05/10 07:30:43;;;;;;;13.05;10.77;;;16.50;74.50;;;;;;5088124;28;20479;-79
2022/05/10 07:33:10;;;;;;;20.02;12.40;;;16.50;74.10;;;;;;5088514;28;20048;-78
2022/05/10 07:38:21;;;;;;;19.75;12.30;;;16.60;74.50;;;;;;5121602;27;20051;-81
2022/05/10 07:40:48;;;;;;;18.00;12.55;;;16.60;75.30;;;;;;5068112;28;20044;-79
2022/05/10 07:43:16;;;;;;;20.08;11.60;;;16.60;75.20;;;;;;5068856;28;20437;-77
2022/05/10 07:45:44;;;;;;;16.70;10.82;;;16.70;75.00;;;;;;5068789;28;20062;-79
2022/05/10 07:48:10;;;;;;;13.82;10.63;;;16.80;74.50;;;;;;5088102;28;20047;-82
2022/05/10 07:50:36;;;;;;;14.57;10.75;;;16.80;73.70;;;;;;5070407;28;20040;-78
2022/05/10 07:53:06;;;;;;;15.13;10.25;;;16.90;73.30;;;;;;5069590;28;20040;-82
2022/05/10 07:55:36;;;;;;;14.70;10.52;;;17.00;72.50;;;;;;5072873;28;20049;-80
2022/05/10 07:58:06;;;;;;;16.70;10.80;;;17.10;72.10;;;;;;5093045;28;20435;-82
2022/05/10 08:00:34;;;;;;;13.63;10.45;;;17.20;71.90;;;;;;5076895;28;20047;-80
2022/05/10 08:03:15;;;;;;;15.85;9.73;;;17.30;71.60;;;;;;5076244;28;20043;-79
2022/05/10 08:05:41;;;;;;;17.88;10.40;;;17.40;70.90;;;;;;5093323;28;20047;-83
2022/05/10 08:08:08;;;;;;;17.95;10.90;;;17.50;70.80;;;;;;5093663;28;20453;-83
2022/05/10 08:10:34;;;;;;;14.75;10.57;;;17.70;70.10;;;;;;5093677;28;20067;-82
2022/05/10 08:13:00;;;;;;;16.92;10.10;;;17.80;69.60;;;;;;5076115;28;20493;-83
2022/05/10 08:15:26;;;;;;;15.60;9.02;;;17.90;69.00;;;;;;5093352;28;20614;-82
2022/05/10 08:17:52;;;;;;;17.38;9.00;;;18.00;69.00;;;;;;5076211;28;20081;-81
2022/05/10 08:20:19;;;;;;;13.60;8.73;;;18.10;68.40;;;;;;5093346;28;20053;-81
2022/05/10 08:22:45;;;;;;;14.73;9.07;;;18.30;67.50;;;;;;5060302;28;20388;-82
2022/05/10 08:25:12;;;;;;;16.85;9.57;;;18.40;67.30;;;;;;5076226;28;20131;-81
2022/05/10 08:27:38;;;;;;;15.25;8.85;;;18.40;65.90;;;;;;5059823;28;20093;-81
2022/05/10 08:30:06;;;;;;;13.95;8.88;;;18.50;64.70;;;;;;5076153;28;20054;-81
2022/05/10 08:32:32;;;;;;;13.75;8.93;;;18.70;65.40;;;;;;5092784;28;20040;-81
2022/05/10 08:34:57;;;;;;;11.75;7.90;;;18.80;64.50;;;;;;5059322;28;20036;-82
2022/05/10 08:37:23;;;;;;;15.40;8.55;;;18.90;63.20;;;;;;5059303;28;20439;-80
2022/05/10 08:39:49;;;;;;;17.73;8.65;;;19.10;63.10;;;;;;5075894;28;20032;-77
2022/05/10 08:42:22;;;;;;;20.05;8.90;;;19.20;63.20;;;;;;5075877;28;20044;-78
2022/05/10 08:44:57;;;;;;;15.77;8.32;;;19.30;62.70;;;;;;5076345;28;20444;-77
2022/05/10 08:47:24;;;;;;;12.20;7.80;;;19.50;62.20;;;;;;5092725;28;20131;-78
2022/05/10 08:50:02;;;;;;;16.33;7.80;;;19.50;62.60;;;;;;5075965;28;20050;-76
2022/05/10 08:52:33;;;;;;;10.82;6.85;;;19.70;61.80;;;;;;5092492;28;20083;-79
2022/05/10 08:54:59;;;;;;;10.20;6.10;;;19.80;61.40;;;;;;5075942;28;20040;-77
2022/05/10 08:57:51;;;;;;;11.30;6.43;;;19.90;60.50;;;;;;5059497;28;20109;-78
2022/05/10 09:00:51;;;;;;;12.10;6.10;;;20.00;59.90;;;;;;5071431;28;20072;-77
2022/05/10 09:03:28;;;;;;;7.88;5.97;;;20.00;59.20;;;;;;5091899;28;20079;-78
2022/05/10 09:06:01;;;;;;;14.00;7.05;;;20.00;58.70;;;;;;5075474;28;20048;-80
2022/05/10 09:08:58;;;;;;;10.55;6.15;;;20.10;58.90;;;;;;5092343;28;20032;-79
2022/05/10 09:11:35;;;;;;;9.68;6.20;;;20.10;59.30;;;;;;5075459;28;20040;-83
2022/05/10 09:14:03;;;;;;;21.67;7.15;;;20.20;58.10;;;;;;5077299;28;20052;-82
2022/05/10 09:16:29;;;;;;;13.32;7.60;;;20.20;58.60;;;;;;5075896;28;20086;-81
2022/05/10 09:18:55;;;;;;;15.60;8.40;;;20.30;58.20;;;;;;5075850;28;20071;-81
2022/05/10 09:21:28;;;;;;;12.65;8.40;;;20.40;57.90;;;;;;5075345;28;20122;-83
2022/05/10 09:24:36;;;;;;;15.10;7.40;;;20.40;58.70;;;;;;5092020;28;20126;-80
2022/05/10 09:27:09;;;;;;;9.63;7.90;;;20.40;58.00;;;;;;5057666;28;20054;-82
2022/05/10 09:29:42;;;;;;;11.80;7.20;;;20.40;59.00;;;;;;5092211;28;20051;-83
2022/05/10 09:35:14;;;;;;;15.70;9.00;;;20.50;59.00;;;;;;5092596;28;20171;-78
2022/05/10 09:38:08;;;;;;;13.98;9.50;;;20.50;58.40;;;;;;5092355;28;20093;-78
2022/05/10 09:40:48;;;;;;;13.30;9.23;;;20.60;58.50;;;;;;5092103;28;20093;-78
2022/05/10 09:43:23;;;;;;;11.65;8.63;;;20.60;58.60;;;;;;5092484;28;20122;-77
2022/05/10 09:46:23;;;;;;;15.63;10.35;;;20.60;59.20;;;;;;5075301;28;20040;-80
2022/05/10 09:48:52;;;;;;;13.07;9.15;;;20.60;59.50;;;;;;5074951;28;20028;-78
2022/05/10 09:51:30;;;;;;;15.68;9.15;;;20.60;59.10;;;;;;5091756;28;20040;-78
2022/05/10 09:53:56;;;;;;;15.95;9.45;;;20.60;59.10;;;;;;5075440;28;20040;-81
2022/05/10 09:56:34;;;;;;;15.35;9.63;;;20.60;59.30;;;;;;5092451;28;20040;-78
2022/05/10 09:59:30;;;;;;;13.70;9.75;;;20.60;58.70;;;;;;5092206;28;20043;-80
2022/05/10 10:01:59;;;;;;;15.80;9.73;;;20.70;58.20;;;;;;5092210;28;20044;-79
2022/05/10 10:04:37;;;;;;;13.98;9.77;;;20.50;58.20;;;;;;5074997;28;20058;-79
2022/05/10 10:07:18;;;;;;;13.25;9.07;;;20.50;58.80;;;;;;5091761;28;20043;-78
2022/05/10 10:09:53;;;;;;;15.40;9.25;;;20.50;59.40;;;;;;5074842;28;20044;-78
2022/05/10 10:12:36;;;;;;;17.42;10.02;;;20.50;59.30;;;;;;5091151;28;20036;-81
2022/05/10 10:15:19;;;;;;;13.35;10.07;;;20.50;60.00;;;;;;5075597;28;20040;-78
2022/05/10 10:17:58;;;;;;;16.52;8.77;;;20.50;60.10;;;;;;5095050;28;20044;-79
2022/05/10 10:20:36;;;;;;;13.80;9.82;;;20.40;60.00;;;;;;5095169;28;20044;-77
2022/05/10 10:23:28;;;;;;;18.00;10.88;;;20.50;60.50;;;;;;5094862;28;20075;-81
2022/05/10 10:26:00;;;;;;;15.57;9.88;;;20.40;60.50;;;;;;5076908;28;20040;-78
2022/05/10 10:28:40;;;;;;;15.18;10.27;;;20.40;60.80;;;;;;5095114;28;20036;-78
2022/05/10 10:31:15;;;;;;;14.30;10.73;;;20.30;61.30;;;;;;5077963;28;20429;-79
2022/05/10 10:34:07;;;;;;;14.30;10.05;;;20.20;61.40;;;;;;5094792;28;20040;-78
2022/05/10 10:36:39;;;;;;;13.10;9.55;;;20.30;61.50;;;;;;5077837;28;20078;-77
2022/05/10 10:39:43;;;;;;;15.77;9.93;;;20.20;62.00;;;;;;5095445;28;20115;-81
2022/05/10 10:42:21;;;;;;;15.07;9.07;;;20.20;62.50;;;;;;5084590;28;20073;-81
2022/05/10 10:44:55;;;;;;;14.05;9.43;;;20.20;62.90;;;;;;5095262;28;20071;-81
2022/05/10 10:47:24;;;;;;;13.75;10.05;;;20.40;63.20;;;;;;5094681;28;20392;-78
2022/05/10 10:50:17;;;;;;;15.48;9.90;;;20.40;63.50;;;;;;5094325;28;20093;-81
2022/05/10 10:52:42;;;;;;;16.15;9.05;;;20.50;63.70;;;;;;5094339;28;20039;-80
2022/05/10 10:55:09;;;;;;;10.90;6.88;;;20.50;62.40;;;;;;5077876;28;20040;-82
2022/05/10 10:58:01;;;;;;;9.32;6.57;;;20.50;62.10;;;;;;5061337;28;20036;-82
2022/05/10 11:00:42;;;;;;;12.52;5.95;;;20.50;61.10;;;;;;5077358;28;20040;-78
2022/05/10 11:03:16;;;;;;;13.38;6.53;;;20.50;60.00;;;;;;5094119;28;20040;-79
2022/05/10 11:06:01;;;;;;;13.73;7.30;;;20.40;60.10;;;;;;5077313;28;20038;-82
2022/05/10 11:08:41;;;;;;;7.85;6.43;;;20.50;61.10;;;;;;5094314;28;20438;-81
2022/05/10 11:11:16;;;;;;;11.27;6.00;;;20.40;61.20;;;;;;5094084;28;20396;-78
2022/05/10 11:14:20;;;;;;;10.00;6.70;;;20.60;60.90;;;;;;5093775;28;20056;-80
2022/05/10 11:17:12;;;;;;;14.45;6.95;;;20.50;60.40;;;;;;5077040;28;20499;-80
2022/05/10 11:20:22;;;;;;;8.52;5.40;;;20.50;60.60;;;;;;5094127;28;20040;-81
2022/05/10 11:23:04;;;;;;;14.27;5.78;;;20.60;59.90;;;;;;5032581;28;20517;-79
2022/05/10 11:25:51;;;;;;;7.57;4.75;;;20.70;60.20;;;;;;5057569;28;20040;-81
2022/05/10 11:28:29;;;;;;;7.20;4.57;;;20.80;59.00;;;;;;5093949;28;20052;-79
2022/05/10 11:31:11;;;;;;;9.43;5.47;;;20.70;57.90;;;;;;5076884;28;20154;-80
2022/05/10 11:34:24;;;;;;;14.77;4.88;;;20.80;57.70;;;;;;5093624;28;20097;-81
2022/05/10 11:36:52;;;;;;;7.85;4.18;;;20.90;57.10;;;;;;5032704;28;20480;-81
2022/05/10 11:39:39;;;;;;;9.65;4.18;;;20.90;55.70;;;;;;5076825;28;20047;-81
2022/05/10 11:42:39;;;;;;;7.50;3.85;;;20.90;54.20;;;;;;5076487;28;20043;-78
2022/05/10 11:45:17;;;;;;;8.30;4.53;;;20.90;52.90;;;;;;5076384;28;20064;-79
2022/05/10 11:47:57;;;;;;;8.23;3.78;;;20.90;53.00;;;;;;5076324;28;20040;-80
2022/05/10 11:50:23;;;;;;;9.88;3.60;;;20.80;53.40;;;;;;5076301;28;20043;-79
2022/05/10 11:53:11;;;;;;;7.00;2.90;;;20.80;53.10;;;;;;5093090;28;20046;-78
2022/05/10 11:55:51;;;;;;;10.13;4.10;;;20.80;52.70;;;;;;5076243;28;20495;-79
2022/05/10 11:58:17;;;;;;;6.80;3.47;;;20.80;52.70;;;;;;5076171;28;20044;-79
2022/05/10 12:00:51;;;;;;;12.15;4.13;;;20.80;52.40;;;;;;5092582;28;20078;-78
2022/05/10 12:03:43;;;;;;;7.53;3.33;;;21.00;53.70;;;;;;5076073;28;20044;-80
2022/05/10 12:06:24;;;;;;;5.95;2.17;;;21.20;52.60;;;;;;5092891;28;20052;-80
2022/05/10 12:08:52;;;;;;;5.97;3.00;;;21.30;51.30;;;;;;5092847;28;20044;-78
2022/05/10 12:11:37;;;;;;;4.45;1.60;;;21.40;46.20;;;;;;5076029;28;20515;-78
2022/05/10 12:22:58;;;;;;;3.50;1.80;;;20.80;43.10;;;;;;5092567;28;20044;-80
2022/05/10 12:26:02;;;;;;;3.95;1.63;;;20.60;43.40;;;;;;5091983;28;20317;-79
2022/05/10 12:28:43;;;;;;;4.20;1.35;;;20.50;44.10;;;;;;5092836;28;20039;-78
2022/05/10 12:31:31;;;;;;;7.20;1.38;;;20.40;43.70;;;;;;5092321;28;20052;-79
2022/05/10 12:34:06;;;;;;;4.30;1.30;;;20.30;44.40;;;;;;5092547;28;20036;-78
2022/05/10 12:36:50;;;;;;;5.10;1.10;;;20.20;44.70;;;;;;5075228;28;20031;-78
2022/05/10 12:39:24;;;;;;;3.95;1.40;;;20.20;44.00;;;;;;5092320;28;20036;-79
2022/05/10 12:41:55;;;;;;;5.15;1.13;;;20.20;43.40;;;;;;5075384;28;20036;-78
2022/05/10 12:44:21;;;;;;;5.13;1.42;;;20.10;43.40;;;;;;5092269;28;20055;-77
2022/05/10 12:47:11;;;;;;;3.72;1.38;;;20.00;43.30;;;;;;5092267;28;20036;-79
2022/05/10 12:49:55;;;;;;;4.90;2.25;;;20.00;44.60;;;;;;5053722;28;20500;-79
2022/05/10 12:52:47;;;;;;;6.10;2.10;;;19.90;47.80;;;;;;5092023;28;20040;-77
2022/05/10 12:55:24;;;;;;;5.05;2.70;;;19.90;49.80;;;;;;5092068;28;20400;-80
2022/05/10 12:58:06;;;;;;;7.03;2.88;;;19.70;51.50;;;;;;5075220;28;20071;-79
2022/05/10 13:00:39;;;;;;;6.30;2.47;;;19.50;53.40;;;;;;5075472;28;20396;-79
2022/05/10 13:03:20;;;;;;;6.68;3.05;;;19.50;53.50;;;;;;5092278;28;20051;-78
2022/05/10 13:06:06;;;;;;;7.75;3.17;;;19.40;55.00;;;;;;5075151;28;20069;-81
2022/05/10 13:08:50;;;;;;;10.18;4.20;;;19.30;53.90;;;;;;5075102;28;20040;-78
2022/05/10 13:11:19;;;;;;;9.57;2.75;;;19.10;54.10;;;;;;5091960;28;20373;-79
2022/05/10 13:13:46;;;;;;;5.50;2.90;;;19.10;55.10;;;;;;5091622;28;20051;-77
2022/05/10 13:16:20;;;;;;;10.02;3.08;;;19.10;53.90;;;;;;5074981;28;20040;-80
2022/05/10 13:18:47;;;;;;;8.15;2.58;;;19.00;54.50;;;;;;5075041;28;20039;-78
2022/05/10 13:21:25;;;;;;;4.90;2.65;;;19.00;54.60;;;;;;5075081;28;20074;-79
2022/05/10 13:23:54;;;;;;;7.43;3.63;;;19.00;55.10;;;;;;5075011;28;20050;-79